createdAt,value
2022-12-12T00:01:28.444Z,27.20
2022-12-12T00:03:57.140Z,27.20
2022-12-12T00:06:25.512Z,27.20
2022-12-12T00:08:53.968Z,27.30
2022-12-12T00:11:23.906Z,27.20
2022-12-12T00:13:53.386Z,27.20
2022-12-12T00:16:22.125Z,27.20
2022-12-12T00:18:50.433Z,27.20
2022-12-12T00:21:23.297Z,27.20
2022-12-12T00:23:52.472Z,27.20
2022-12-12T00:26:30.610Z,27.20
2022-12-12T00:29:00.133Z,27.20
2022-12-12T00:31:28.895Z,27.20
2022-12-12T00:33:57.654Z,27.20
2022-12-12T00:36:29.075Z,27.20
2022-12-12T00:38:58.643Z,27.20
2022-12-12T00:41:27.248Z,27.10
2022-12-12T00:43:55.617Z,27.20
2022-12-12T00:46:26.418Z,27.20
2022-12-12T00:48:56.987Z,27.20
2022-12-12T00:51:27.304Z,27.10
2022-12-12T00:53:58.199Z,27.20
2022-12-12T00:56:27.400Z,27.20
2022-12-12T00:58:55.852Z,27.20
2022-12-12T01:01:28.001Z,27.10
2022-12-12T01:03:56.652Z,27.10
2022-12-12T01:06:25.041Z,27.20
2022-12-12T01:08:54.027Z,27.20
2022-12-12T01:11:23.297Z,27.20
2022-12-12T01:13:53.794Z,27.30
2022-12-12T01:16:23.704Z,27.20
2022-12-12T01:18:52.355Z,27.20
2022-12-12T01:21:21.578Z,27.20
2022-12-12T01:23:50.114Z,27.30
2022-12-12T01:26:21.524Z,27.30
2022-12-12T01:28:50.334Z,27.30
2022-12-12T01:31:19.229Z,27.30
2022-12-12T01:33:47.730Z,27.30
2022-12-12T01:36:18.802Z,27.30
2022-12-12T01:38:48.657Z,27.20
2022-12-12T01:41:18.277Z,27.20
2022-12-12T01:43:47.278Z,27.20
2022-12-12T01:46:37.016Z,27.20
2022-12-12T01:49:19.538Z,27.20
2022-12-12T01:51:50.507Z,27.20
2022-12-12T01:54:24.016Z,27.20
2022-12-12T01:56:53.448Z,27.20
2022-12-12T01:59:25.157Z,27.20
2022-12-12T02:01:54.914Z,27.20
2022-12-12T02:04:24.409Z,27.20
2022-12-12T02:06:53.624Z,27.20
2022-12-12T02:09:23.312Z,27.20
2022-12-12T02:11:55.260Z,27.10
2022-12-12T02:14:33.730Z,27.10
2022-12-12T02:17:02.266Z,27.10
2022-12-12T02:19:51.559Z,27.00
2022-12-12T02:22:54.530Z,27.00
2022-12-12T02:25:28.919Z,27.00
2022-12-12T02:28:41.039Z,27.00
2022-12-12T02:31:22.086Z,27.00
2022-12-12T02:34:16.649Z,27.00
2022-12-12T02:36:57.581Z,26.90
2022-12-12T02:39:38.691Z,26.90
2022-12-12T02:42:27.229Z,26.90
2022-12-12T02:45:10.380Z,26.80
2022-12-12T02:47:45.822Z,26.90
2022-12-12T02:50:26.984Z,26.90
2022-12-12T02:52:55.276Z,26.80
2022-12-12T02:55:23.387Z,26.80
2022-12-12T02:57:52.740Z,26.80
2022-12-12T03:00:21.192Z,26.80
2022-12-12T03:03:08.109Z,26.70
2022-12-12T03:05:44.667Z,26.70
2022-12-12T03:08:46.167Z,26.70
2022-12-12T03:11:24.026Z,26.70
2022-12-12T03:13:52.327Z,26.70
2022-12-12T03:16:26.322Z,26.70
2022-12-12T03:19:16.921Z,26.60
2022-12-12T03:21:53.326Z,26.60
2022-12-12T03:24:35.297Z,26.60
2022-12-12T03:27:13.919Z,26.60
2022-12-12T03:29:47.536Z,26.60
2022-12-12T03:32:24.204Z,26.50
2022-12-12T03:35:07.195Z,26.50
2022-12-12T03:37:39.917Z,26.50
2022-12-12T03:40:30.202Z,26.50
2022-12-12T03:43:05.809Z,26.50
2022-12-12T03:45:41.702Z,26.50
2022-12-12T03:48:21.742Z,26.40
2022-12-12T03:50:55.612Z,26.40
2022-12-12T03:53:31.331Z,26.40
2022-12-12T03:56:20.718Z,26.40
2022-12-12T03:58:51.912Z,26.30
2022-12-12T04:01:24.196Z,26.30
2022-12-12T04:04:28.842Z,26.30
2022-12-12T04:07:14.904Z,26.20
2022-12-12T04:09:43.858Z,26.20
2022-12-12T04:12:42.578Z,26.20
2022-12-12T04:15:32.131Z,26.20
2022-12-12T04:18:28.031Z,26.10
2022-12-12T04:21:17.757Z,26.20
2022-12-12T04:24:00.602Z,26.20
2022-12-12T04:26:38.056Z,26.20
2022-12-12T04:29:28.233Z,26.30
2022-12-12T04:31:59.521Z,26.30
2022-12-12T04:34:40.028Z,26.30
2022-12-12T04:37:12.012Z,26.30
2022-12-12T04:39:43.681Z,26.30
2022-12-12T04:42:15.899Z,26.20
2022-12-12T04:44:45.492Z,26.20
2022-12-12T04:47:16.273Z,26.10
2022-12-12T04:49:47.480Z,26.10
2022-12-12T04:52:18.639Z,26.10
2022-12-12T04:55:00.946Z,26.00
2022-12-12T04:57:32.157Z,26.00
2022-12-12T05:00:00.921Z,26.00
2022-12-12T05:02:39.090Z,26.00
2022-12-12T05:05:25.229Z,26.00
2022-12-12T05:08:03.865Z,26.00
2022-12-12T05:10:33.046Z,25.90
2022-12-12T05:13:02.109Z,25.90
2022-12-12T05:15:30.832Z,25.90
2022-12-12T05:18:08.179Z,25.90
2022-12-12T05:20:36.557Z,25.90
2022-12-12T05:23:05.421Z,25.90
2022-12-12T05:25:34.125Z,25.80
2022-12-12T05:28:02.533Z,25.80
2022-12-12T05:30:30.722Z,25.90
2022-12-12T05:32:59.134Z,25.90
2022-12-12T05:35:28.203Z,25.90
2022-12-12T05:37:56.387Z,25.90
2022-12-12T05:40:24.844Z,25.90
2022-12-12T05:42:53.059Z,25.90
2022-12-12T05:45:21.355Z,25.90
2022-12-12T05:47:49.769Z,25.80
2022-12-12T05:50:18.100Z,25.80
2022-12-12T05:52:46.393Z,25.90
2022-12-12T05:55:15.408Z,25.90
2022-12-12T05:57:43.643Z,25.90
2022-12-12T06:00:12.233Z,25.90
2022-12-12T06:02:40.828Z,25.80
2022-12-12T06:05:09.511Z,25.80
2022-12-12T06:07:37.589Z,25.80
2022-12-12T06:10:06.704Z,25.70
2022-12-12T06:12:34.913Z,25.70
2022-12-12T06:15:03.409Z,25.70
2022-12-12T06:17:33.493Z,25.70
2022-12-12T06:20:02.231Z,25.70
2022-12-12T06:22:30.609Z,25.70
2022-12-12T06:24:58.885Z,25.60
2022-12-12T06:27:27.093Z,25.60
2022-12-12T06:29:55.426Z,25.60
2022-12-12T06:32:23.696Z,25.60
2022-12-12T06:34:51.924Z,25.60
2022-12-12T06:37:20.432Z,25.50
2022-12-12T06:39:48.627Z,25.50
2022-12-12T06:42:16.824Z,25.60
2022-12-12T06:44:45.647Z,25.60
2022-12-12T06:47:14.041Z,25.60
2022-12-12T06:49:42.486Z,25.60
2022-12-12T06:52:10.726Z,25.60
2022-12-12T06:54:39.001Z,25.70
2022-12-12T06:57:07.289Z,25.80
2022-12-12T06:59:35.536Z,25.80
2022-12-12T07:02:04.159Z,25.80
2022-12-12T07:04:32.596Z,25.80
2022-12-12T07:07:00.833Z,25.80
2022-12-12T07:09:29.110Z,25.80
2022-12-12T07:11:57.673Z,25.80
2022-12-12T07:14:25.927Z,25.80
2022-12-12T07:16:57.302Z,25.80
2022-12-12T07:19:25.616Z,25.80
2022-12-12T07:21:53.697Z,25.80
2022-12-12T07:24:22.141Z,25.80
2022-12-12T07:26:50.228Z,25.70
2022-12-12T07:29:18.444Z,25.80
2022-12-12T07:31:47.403Z,25.80
2022-12-12T07:34:15.716Z,25.80
2022-12-12T07:36:44.120Z,25.90
2022-12-12T07:39:15.933Z,25.80
2022-12-12T07:47:00.279Z,26.00
2022-12-12T07:49:29.624Z,26.00
2022-12-12T07:51:57.819Z,26.10
2022-12-12T07:54:25.997Z,26.10
2022-12-12T07:56:54.277Z,26.20
2022-12-12T07:59:22.687Z,26.20
2022-12-12T08:01:50.810Z,26.20
2022-12-12T08:04:19.109Z,26.30
2022-12-12T08:06:47.692Z,26.30
2022-12-12T08:09:15.802Z,26.40
2022-12-12T08:11:46.687Z,26.40
2022-12-12T08:14:15.779Z,26.50
2022-12-12T08:16:44.183Z,26.50
2022-12-12T08:19:12.694Z,26.60
2022-12-12T08:21:41.165Z,26.60
2022-12-12T08:24:13.452Z,26.70
2022-12-12T08:26:42.349Z,26.70
2022-12-12T08:29:13.554Z,26.80
2022-12-12T08:31:43.600Z,26.80
2022-12-12T08:34:12.399Z,26.90
2022-12-12T08:36:40.660Z,26.90
2022-12-12T08:39:11.754Z,26.90
2022-12-12T08:41:43.251Z,27.10
2022-12-12T08:44:13.116Z,27.10
2022-12-12T08:46:42.173Z,27.10
2022-12-12T08:49:11.043Z,27.20
2022-12-12T08:51:40.779Z,27.20
2022-12-12T08:54:09.173Z,27.30
2022-12-12T08:56:37.321Z,27.30
2022-12-12T08:59:05.775Z,27.40
2022-12-12T09:01:34.122Z,27.40
2022-12-12T09:04:03.096Z,27.50
2022-12-12T09:06:31.775Z,27.50
2022-12-12T09:09:00.333Z,27.50
2022-12-12T09:11:28.690Z,27.60
2022-12-12T09:13:57.361Z,27.70
2022-12-12T09:16:27.094Z,27.70
2022-12-12T09:18:55.357Z,27.80
2022-12-12T09:21:23.919Z,27.90
2022-12-12T09:23:52.455Z,28.00
2022-12-12T09:26:20.624Z,28.00
2022-12-12T09:28:50.313Z,28.10
2022-12-12T09:31:19.305Z,28.10
2022-12-12T09:33:47.648Z,28.20
2022-12-12T09:36:16.903Z,28.30
2022-12-12T09:38:46.261Z,28.40
2022-12-12T09:41:18.494Z,28.30
2022-12-12T09:43:58.725Z,28.20
2022-12-12T09:46:51.183Z,28.30
2022-12-12T09:49:39.874Z,28.30
2022-12-12T09:52:31.265Z,28.20
2022-12-12T09:55:23.609Z,28.20
2022-12-12T09:58:27.692Z,28.10
2022-12-12T10:01:13.700Z,28.10
2022-12-12T10:04:04.117Z,28.10
2022-12-12T10:06:58.350Z,28.10
2022-12-12T10:09:41.586Z,28.10
2022-12-12T10:12:15.195Z,28.00
2022-12-12T10:15:00.339Z,28.00
2022-12-12T10:17:48.962Z,28.00
2022-12-12T10:20:29.264Z,28.20
2022-12-12T10:23:22.018Z,28.30
2022-12-12T10:25:53.860Z,28.30
2022-12-12T10:28:25.577Z,28.30
2022-12-12T10:31:21.144Z,28.30
2022-12-12T10:34:08.380Z,28.20
2022-12-12T10:37:09.772Z,28.40
2022-12-12T10:39:54.441Z,28.40
2022-12-12T10:42:25.705Z,28.50
2022-12-12T10:45:08.390Z,28.70
2022-12-12T10:47:36.784Z,28.80
2022-12-12T10:50:33.653Z,28.80
2022-12-12T10:53:05.590Z,28.70
2022-12-12T10:55:58.887Z,28.60
2022-12-12T10:58:29.277Z,28.60
2022-12-12T11:01:03.418Z,28.40
2022-12-12T11:03:39.301Z,28.50
2022-12-12T11:06:12.688Z,28.40
2022-12-12T11:08:57.434Z,28.50
2022-12-12T11:11:28.573Z,28.70
2022-12-12T11:13:59.611Z,28.80
2022-12-12T11:16:32.295Z,29.00
2022-12-12T11:19:11.505Z,29.20
2022-12-12T11:21:40.036Z,29.30
2022-12-12T11:24:13.788Z,29.50
2022-12-12T11:27:05.336Z,29.60
2022-12-12T11:29:49.550Z,29.60
2022-12-12T11:32:25.887Z,29.60
2022-12-12T11:34:58.886Z,29.60
2022-12-12T11:37:37.608Z,29.50
2022-12-12T11:40:18.474Z,29.60
2022-12-12T11:42:47.076Z,29.60
2022-12-12T11:45:15.279Z,29.50
2022-12-12T11:47:45.799Z,29.60
2022-12-12T11:50:29.480Z,29.60
2022-12-12T11:53:00.493Z,29.70
2022-12-12T11:55:43.066Z,29.80
2022-12-12T11:58:27.412Z,29.80
2022-12-12T12:01:16.520Z,29.90
2022-12-12T12:04:08.940Z,30.10
2022-12-12T12:06:54.046Z,30.00
2022-12-12T12:09:52.482Z,29.90
2022-12-12T12:12:56.326Z,30.00
2022-12-12T12:16:13.008Z,30.00
2022-12-12T12:19:00.767Z,30.00
2022-12-12T12:21:57.726Z,30.10
2022-12-12T12:24:41.339Z,30.10
2022-12-12T12:27:19.892Z,30.00
2022-12-12T12:30:42.318Z,30.10
2022-12-12T12:33:32.302Z,29.90
2022-12-12T12:36:23.337Z,29.80
2022-12-12T12:39:11.462Z,29.90
2022-12-12T13:08:42.048Z,30.50
2022-12-12T13:11:22.640Z,30.50
2022-12-12T13:13:52.919Z,30.50
2022-12-12T13:16:27.235Z,30.60
2022-12-12T13:19:24.870Z,30.60
2022-12-12T13:22:14.585Z,30.70
2022-12-12T13:25:06.210Z,30.50
2022-12-12T13:27:39.816Z,30.70
2022-12-12T13:30:26.805Z,30.70
2022-12-12T13:32:58.194Z,30.60
2022-12-12T13:35:35.565Z,30.70
2022-12-12T13:38:04.539Z,30.70
2022-12-12T13:40:42.027Z,30.80
2022-12-12T14:12:17.977Z,29.20
2022-12-12T14:15:08.282Z,29.30
2022-12-12T14:17:42.867Z,29.10
2022-12-12T14:20:36.462Z,29.10
2022-12-12T14:23:23.590Z,29.20
2022-12-12T14:25:52.401Z,29.00
2022-12-12T14:28:33.176Z,29.10
2022-12-12T14:31:16.502Z,29.10
2022-12-12T14:34:26.645Z,29.30
2022-12-12T14:37:03.907Z,29.40
2022-12-12T14:40:02.051Z,29.50
2022-12-12T14:43:21.778Z,29.70
2022-12-12T14:45:50.557Z,29.90
2022-12-12T14:48:30.319Z,30.20
2022-12-12T14:51:11.473Z,30.60
2022-12-12T14:53:39.785Z,30.50
2022-12-12T14:56:16.905Z,30.40
2022-12-12T14:59:20.302Z,30.50
2022-12-12T15:02:00.524Z,30.50
2022-12-12T15:04:33.320Z,30.40
2022-12-12T15:07:21.998Z,30.30
2022-12-12T15:09:50.978Z,30.10
2022-12-12T15:12:22.804Z,29.80
2022-12-12T15:14:51.124Z,29.70
2022-12-12T15:17:23.423Z,29.70
2022-12-12T15:20:13.661Z,29.90
2022-12-12T15:23:07.120Z,30.30
2022-12-12T15:25:58.422Z,30.60
2022-12-12T15:28:27.072Z,31.00
2022-12-12T15:30:57.432Z,31.30
2022-12-12T15:33:27.536Z,31.50
2022-12-12T15:36:02.711Z,31.70
2022-12-12T15:38:33.039Z,31.80
2022-12-12T15:41:11.172Z,31.70
2022-12-12T15:43:42.392Z,31.60
2022-12-12T15:46:15.192Z,31.90
2022-12-12T15:48:48.686Z,32.30
2022-12-12T15:51:24.376Z,32.30
2022-12-12T15:53:54.883Z,32.10
2022-12-12T15:56:24.972Z,31.80
2022-12-12T15:59:09.945Z,32.00
2022-12-12T16:01:38.561Z,32.10
2022-12-12T16:04:23.936Z,32.50
2022-12-12T16:06:52.468Z,32.60
2022-12-12T16:09:25.501Z,32.50
2022-12-12T16:11:57.577Z,32.40
2022-12-12T16:14:39.523Z,32.40
2022-12-12T16:17:18.981Z,32.50
2022-12-12T16:19:54.769Z,32.70
2022-12-12T16:22:34.749Z,32.40
2022-12-12T16:25:27.060Z,31.80
2022-12-12T16:28:10.609Z,32.00
2022-12-12T16:30:44.069Z,32.10
2022-12-12T16:33:29.497Z,32.10
2022-12-12T16:36:00.413Z,31.90
2022-12-12T16:41:42.363Z,31.80
2022-12-12T16:44:10.621Z,32.00
2022-12-12T16:46:38.726Z,31.70
2022-12-12T16:49:15.047Z,31.60
2022-12-12T16:51:43.582Z,31.60
2022-12-12T16:54:18.403Z,31.40
2022-12-12T16:56:46.788Z,31.40
2022-12-12T16:59:15.035Z,31.50
2022-12-12T17:01:43.318Z,31.30
2022-12-12T17:04:21.050Z,31.20
2022-12-12T17:06:50.130Z,31.00
2022-12-12T17:11:57.449Z,30.60
2022-12-12T17:14:26.023Z,30.40
2022-12-12T17:16:55.719Z,30.30
2022-12-12T17:19:27.369Z,30.30
2022-12-12T17:21:55.490Z,30.40
2022-12-12T17:24:23.639Z,30.30
2022-12-12T17:26:52.070Z,30.20
2022-12-12T17:29:21.402Z,30.20
2022-12-12T17:31:49.767Z,30.00
2022-12-12T17:34:18.107Z,30.00
2022-12-12T17:36:46.251Z,29.90
2022-12-12T17:39:14.743Z,29.80
2022-12-12T17:41:42.826Z,29.70
2022-12-12T17:44:11.222Z,29.60
2022-12-12T17:46:39.349Z,29.60
2022-12-12T17:49:07.764Z,29.60
2022-12-12T17:51:35.932Z,29.50
2022-12-12T17:54:04.475Z,29.40
2022-12-12T17:56:32.710Z,29.40
2022-12-12T17:59:01.066Z,29.30
2022-12-12T18:01:30.983Z,29.20
2022-12-12T18:04:00.335Z,29.10
2022-12-12T18:06:31.258Z,29.00
2022-12-12T18:09:03.335Z,29.00
2022-12-12T18:11:33.573Z,29.00
2022-12-12T18:14:03.672Z,28.90
2022-12-12T18:16:33.981Z,28.90
2022-12-12T18:19:03.652Z,28.80
2022-12-12T18:24:24.960Z,28.60
2022-12-12T18:26:57.912Z,28.60
2022-12-12T18:29:27.299Z,28.60
2022-12-12T18:31:55.604Z,28.60
2022-12-12T18:34:24.125Z,28.60
2022-12-12T18:36:52.618Z,28.50
2022-12-12T18:39:21.335Z,28.50
2022-12-12T18:41:49.583Z,28.40
2022-12-12T18:44:18.006Z,28.40
2022-12-12T18:46:49.460Z,28.50
2022-12-12T18:49:17.817Z,28.50
2022-12-12T18:51:47.750Z,28.50
2022-12-12T18:54:17.047Z,28.40
2022-12-12T18:56:46.949Z,28.40
2022-12-12T18:59:16.015Z,28.30
2022-12-12T19:01:44.688Z,28.30
2022-12-12T19:04:20.919Z,28.30
2022-12-12T19:09:14.428Z,28.30
2022-12-12T19:11:43.968Z,28.20
2022-12-12T19:14:13.979Z,28.20
2022-12-12T19:16:43.416Z,28.20
2022-12-12T19:19:12.421Z,28.20
2022-12-12T19:21:42.496Z,28.30
2022-12-12T19:24:11.592Z,28.20
2022-12-12T19:26:42.209Z,28.20
2022-12-12T19:29:19.088Z,28.20
2022-12-12T19:31:48.168Z,28.20
2022-12-12T19:34:17.361Z,28.20
2022-12-12T19:36:45.926Z,28.20
2022-12-12T19:39:14.314Z,28.20
2022-12-12T19:41:44.107Z,28.20
2022-12-12T19:44:13.398Z,28.10
2022-12-12T19:46:44.985Z,28.20
2022-12-12T19:49:15.754Z,28.20
2022-12-12T19:51:45.039Z,28.20
2022-12-12T19:54:20.667Z,28.10
2022-12-12T19:56:49.200Z,28.10
2022-12-12T19:59:20.210Z,28.10
2022-12-12T20:01:48.678Z,28.10
2022-12-12T20:04:23.108Z,28.10
2022-12-12T20:06:52.148Z,28.10
2022-12-12T20:09:24.618Z,28.10
2022-12-12T20:11:53.770Z,28.10
2022-12-12T20:14:24.643Z,28.00
2022-12-12T20:16:54.046Z,28.00
2022-12-12T20:19:24.206Z,28.10
2022-12-12T20:22:01.182Z,28.10
2022-12-12T20:24:33.931Z,28.00
2022-12-12T20:27:02.864Z,28.00
2022-12-12T20:29:31.371Z,28.00
2022-12-12T20:32:00.018Z,28.00
2022-12-12T20:34:29.582Z,28.00
2022-12-12T20:36:57.999Z,28.00
2022-12-12T20:39:26.487Z,28.00
2022-12-12T20:41:55.323Z,28.00
2022-12-12T20:44:24.299Z,28.00
2022-12-12T20:46:53.126Z,28.00
2022-12-12T20:49:22.208Z,28.00
2022-12-12T20:51:55.819Z,28.00
2022-12-12T20:54:27.176Z,27.90
2022-12-12T20:56:56.342Z,27.90
2022-12-12T20:59:25.664Z,27.90
2022-12-12T21:01:54.654Z,27.90
2022-12-12T21:04:23.813Z,27.90
2022-12-12T21:06:52.449Z,27.90
2022-12-12T21:09:24.959Z,27.80
2022-12-12T21:11:58.596Z,27.80
2022-12-12T21:14:28.544Z,27.80
2022-12-12T21:16:57.039Z,27.80
2022-12-12T21:19:25.732Z,27.80
2022-12-12T21:21:54.526Z,27.80
2022-12-12T21:24:22.957Z,27.70
2022-12-12T21:26:51.846Z,27.80
2022-12-12T21:29:20.376Z,27.70
2022-12-12T21:31:51.942Z,27.70
2022-12-12T21:34:24.394Z,27.70
2022-12-12T21:36:56.033Z,27.70
2022-12-12T21:39:26.662Z,27.80
2022-12-12T21:41:55.725Z,27.80
2022-12-12T21:44:24.530Z,27.90
2022-12-12T21:46:53.315Z,27.80
2022-12-12T21:49:21.916Z,27.80
2022-12-12T21:51:50.289Z,27.70
2022-12-12T21:54:18.781Z,27.70
2022-12-12T21:56:47.465Z,27.80
2022-12-12T21:59:16.109Z,27.70
2022-12-12T22:01:44.677Z,27.70
2022-12-12T22:04:14.201Z,27.70
2022-12-12T22:06:45.954Z,27.70
2022-12-12T22:09:15.322Z,27.70
2022-12-12T22:11:50.535Z,27.70
2022-12-12T22:14:21.820Z,27.70
2022-12-12T22:16:50.401Z,27.70
2022-12-12T22:19:20.532Z,27.70
2022-12-12T22:21:49.464Z,27.70
2022-12-12T22:24:18.824Z,27.70
2022-12-12T22:26:50.722Z,27.70
2022-12-12T22:29:20.845Z,27.70
2022-12-12T22:31:49.580Z,27.70
2022-12-12T22:34:21.166Z,27.70
2022-12-12T22:36:49.638Z,27.70
2022-12-12T22:39:22.013Z,27.70
2022-12-12T22:41:50.427Z,27.70
2022-12-12T22:44:20.770Z,27.70
2022-12-12T22:46:50.937Z,27.70
2022-12-12T22:49:21.994Z,27.70
2022-12-12T22:51:51.242Z,27.70
2022-12-12T22:54:20.074Z,27.70
2022-12-12T22:56:48.281Z,27.70
2022-12-12T22:59:16.755Z,27.70
2022-12-12T23:01:44.991Z,27.70
2022-12-12T23:04:14.576Z,27.70
2022-12-12T23:06:44.204Z,27.70
2022-12-12T23:09:21.100Z,27.70
2022-12-12T23:11:50.300Z,27.70
2022-12-12T23:14:21.264Z,27.70
2022-12-12T23:16:51.096Z,27.70
2022-12-12T23:19:23.726Z,27.70
2022-12-12T23:21:52.604Z,27.70
2022-12-12T23:24:20.949Z,27.70
2022-12-12T23:26:52.279Z,27.70
2022-12-12T23:29:21.161Z,27.60
2022-12-12T23:31:49.982Z,27.60
2022-12-12T23:34:21.551Z,27.60
2022-12-12T23:36:51.034Z,27.60
2022-12-12T23:39:19.596Z,27.50
2022-12-12T23:41:48.544Z,27.50
2022-12-12T23:44:18.502Z,27.60
2022-12-12T23:46:48.582Z,27.60
2022-12-12T23:49:19.960Z,27.60
2022-12-12T23:51:50.838Z,27.60
2022-12-12T23:54:22.068Z,27.60
2022-12-12T23:56:51.653Z,27.70
2022-12-12T23:59:21.895Z,27.60
